Time;durP1;ratioP1;P1;durP2;ratioP2;P2;SDS_P1;SDS_P2;PMS_P1;PMS_P2;Temp;Humidity;BMP_temperature;BMP_pressure;BME280_temperature;BME280_humidity;BME280_pressure;Samples;Min_cycle;Max_cycle;Signal;HPM_P1;HPM_P2
2021/10/19 00:01:39;;;;;;;33.03;17.60;;;12.60;93.40;;;;;;5052275;28;20035;-72
2021/10/19 00:04:04;;;;;;;38.20;17.85;;;12.60;93.60;;;;;;5052616;28;20466;-72
2021/10/19 00:06:30;;;;;;;35.92;16.55;;;12.50;93.50;;;;;;5052266;28;20528;-72
2021/10/19 00:08:56;;;;;;;30.08;16.85;;;12.50;93.50;;;;;;5052353;28;20025;-71
2021/10/19 00:11:21;;;;;;;34.97;17.80;;;12.60;93.50;;;;;;5051931;28;20045;-72
2021/10/19 00:13:47;;;;;;;34.13;16.70;;;12.60;93.50;;;;;;5052184;28;20033;-72
2021/10/19 00:16:12;;;;;;;32.53;18.50;;;12.50;93.60;;;;;;5052466;28;20029;-72
2021/10/19 00:18:38;;;;;;;31.02;16.60;;;12.60;93.60;;;;;;5051932;28;20475;-71
2021/10/19 00:21:04;;;;;;;35.10;18.02;;;12.60;93.50;;;;;;5052058;28;20032;-72
2021/10/19 00:23:30;;;;;;;31.67;15.60;;;12.60;93.60;;;;;;5052026;28;20037;-72
2021/10/19 00:25:55;;;;;;;30.23;17.23;;;12.80;93.30;;;;;;5050445;28;20043;-72
2021/10/19 00:28:21;;;;;;;35.10;16.75;;;12.70;93.50;;;;;;5051915;28;20108;-72
2021/10/19 00:30:47;;;;;;;29.65;16.20;;;12.60;93.50;;;;;;5052203;28;20399;-72
2021/10/19 00:33:12;;;;;;;29.80;16.52;;;12.70;93.60;;;;;;5051953;28;20048;-72
2021/10/19 00:35:38;;;;;;;30.15;16.73;;;12.70;93.50;;;;;;5051922;28;20450;-73
2021/10/19 00:38:04;;;;;;;30.33;16.83;;;12.70;93.60;;;;;;5051621;28;20033;-71
2021/10/19 00:40:31;;;;;;;30.75;16.67;;;12.70;93.60;;;;;;5051016;28;20029;-72
2021/10/19 00:42:57;;;;;;;32.33;17.00;;;12.60;93.70;;;;;;5052069;28;20151;-72
2021/10/19 00:45:23;;;;;;;32.15;16.73;;;12.70;93.70;;;;;;5051878;28;20041;-72
2021/10/19 00:47:51;;;;;;;31.77;17.23;;;12.70;93.60;;;;;;5051456;28;20047;-73
2021/10/19 00:50:17;;;;;;;;;;;12.70;93.50;;;;;;5052074;28;20029;-73
2021/10/19 00:52:44;;;;;;;30.52;16.83;;;12.70;93.60;;;;;;5051281;28;20342;-73
2021/10/19 00:55:10;;;;;;;34.65;18.05;;;12.60;93.80;;;;;;5050953;28;20040;-72
2021/10/19 00:57:38;;;;;;;35.47;17.38;;;12.70;93.80;;;;;;5051526;28;20024;-72
2021/10/19 01:00:05;;;;;;;31.53;17.33;;;12.70;93.80;;;;;;5051201;28;20025;-71
2021/10/19 01:02:31;;;;;;;34.72;17.70;;;12.70;93.80;;;;;;5051014;28;20025;-73
2021/10/19 01:04:56;;;;;;;31.55;17.55;;;12.60;93.90;;;;;;5051363;28;20043;-71
2021/10/19 01:07:23;;;;;;;32.20;17.13;;;12.60;94.00;;;;;;5050852;28;20052;-71
2021/10/19 01:09:48;;;;;;;35.95;17.77;;;12.60;94.00;;;;;;5051425;28;20108;-72
2021/10/19 01:12:14;;;;;;;34.78;17.50;;;12.60;94.00;;;;;;5051196;28;20116;-72
2021/10/19 01:14:40;;;;;;;35.35;18.17;;;12.60;94.10;;;;;;5051097;28;20252;-72
2021/10/19 01:17:08;;;;;;;32.65;17.33;;;12.60;94.20;;;;;;5051102;28;20025;-72
2021/10/19 01:19:33;;;;;;;34.70;17.52;;;12.60;94.10;;;;;;5050868;28;20017;-72
2021/10/19 01:22:02;;;;;;;35.50;18.08;;;12.60;94.30;;;;;;5051482;28;20032;-72
2021/10/19 01:24:28;;;;;;;33.47;17.63;;;12.60;94.30;;;;;;5050787;28;20029;-72
2021/10/19 01:26:54;;;;;;;34.55;18.30;;;12.50;94.50;;;;;;5050895;28;20044;-72
2021/10/19 01:29:20;;;;;;;30.15;17.05;;;12.60;94.50;;;;;;5051049;28;20459;-73
2021/10/19 01:31:52;;;;;;;31.27;17.10;;;12.60;94.60;;;;;;5050798;28;20048;-73
2021/10/19 01:34:18;;;;;;;31.23;16.38;;;12.60;94.50;;;;;;5051327;28;20048;-72
2021/10/19 01:36:45;;;;;;;31.55;16.63;;;12.70;94.40;;;;;;5034673;28;20192;-73
2021/10/19 01:39:11;;;;;;;31.08;16.33;;;12.70;94.50;;;;;;5029966;28;20040;-72
2021/10/19 01:41:38;;;;;;;33.22;17.30;;;12.70;94.60;;;;;;5030708;28;20029;-72
2021/10/19 01:44:03;;;;;;;32.42;17.48;;;12.70;94.50;;;;;;5030947;28;20124;-72
2021/10/19 01:46:29;;;;;;;30.42;15.65;;;12.70;94.50;;;;;;5030757;28;20164;-72
2021/10/19 01:48:56;;;;;;;29.00;15.82;;;12.70;94.60;;;;;;5031397;28;20022;-72
2021/10/19 01:51:26;;;;;;;28.58;16.92;;;12.80;94.50;;;;;;5030426;28;20424;-71
2021/10/19 01:53:52;;;;;;;32.75;17.60;;;12.70;94.60;;;;;;5030672;28;20026;-71
2021/10/19 01:56:18;;;;;;;32.65;16.42;;;12.70;94.50;;;;;;5030688;28;20038;-72
2021/10/19 01:58:43;;;;;;;32.63;16.38;;;12.80;94.40;;;;;;5030719;28;20037;-73
2021/10/19 02:01:09;;;;;;;30.33;16.15;;;12.80;94.50;;;;;;5031036;28;20100;-72
2021/10/19 02:03:35;;;;;;;28.48;15.60;;;12.70;94.50;;;;;;5030934;28;20029;-73
2021/10/19 02:06:00;;;;;;;32.47;16.10;;;12.80;94.60;;;;;;5030559;28;20528;-72
2021/10/19 02:08:26;;;;;;;31.95;17.13;;;12.80;94.70;;;;;;5030393;28;20453;-72
2021/10/19 02:10:52;;;;;;;30.35;16.35;;;12.80;94.70;;;;;;5030149;28;20522;-72
2021/10/19 02:13:18;;;;;;;28.42;15.55;;;12.80;94.70;;;;;;5029692;28;20037;-72
2021/10/19 02:15:44;;;;;;;29.60;16.60;;;12.80;94.70;;;;;;5030384;28;20037;-73
2021/10/19 02:18:10;;;;;;;31.45;16.50;;;12.80;94.80;;;;;;5030419;28;20056;-72
2021/10/19 02:20:37;;;;;;;32.30;16.80;;;12.80;94.80;;;;;;5030647;28;20049;-73
2021/10/19 02:23:03;;;;;;;30.25;16.02;;;12.80;94.80;;;;;;5030355;28;20113;-72
2021/10/19 02:25:29;;;;;;;30.17;17.08;;;12.80;94.80;;;;;;5030435;28;20109;-73
2021/10/19 02:27:55;;;;;;;32.38;16.35;;;12.80;94.80;;;;;;5031005;28;20031;-73
2021/10/19 02:30:22;;;;;;;30.63;15.07;;;12.70;95.10;;;;;;5030436;28;20049;-73
2021/10/19 02:32:47;;;;;;;30.08;17.27;;;12.80;94.80;;;;;;5030328;28;20037;-73
2021/10/19 02:35:15;;;;;;;28.23;16.33;;;12.80;95.00;;;;;;5030328;28;20048;-72
2021/10/19 02:37:42;;;;;;;31.58;16.42;;;12.80;95.00;;;;;;5030307;28;20052;-72
2021/10/19 02:40:10;;;;;;;33.30;15.97;;;12.80;95.00;;;;;;5030738;28;20638;-73
2021/10/19 02:42:36;;;;;;;33.55;16.65;;;12.80;95.10;;;;;;5030194;28;20498;-72
2021/10/19 02:45:04;;;;;;;29.55;15.85;;;12.80;95.00;;;;;;5030170;28;20072;-73
2021/10/19 02:47:30;;;;;;;30.75;16.50;;;12.80;95.10;;;;;;5030040;28;20493;-72
2021/10/19 02:49:55;;;;;;;32.33;15.57;;;12.90;95.00;;;;;;5031685;28;20022;-73
2021/10/19 02:52:21;;;;;;;29.23;15.70;;;12.80;95.10;;;;;;5032664;28;20041;-72
2021/10/19 02:54:46;;;;;;;30.25;15.82;;;12.80;95.10;;;;;;5034369;28;20013;-72
2021/10/19 02:57:12;;;;;;;30.23;16.30;;;12.90;95.10;;;;;;5033772;28;20102;-71
2021/10/19 02:59:38;;;;;;;32.58;16.73;;;12.90;95.10;;;;;;5033606;28;20175;-73
2021/10/19 03:02:03;;;;;;;29.40;15.73;;;12.90;95.10;;;;;;5033582;28;20032;-73
2021/10/19 03:04:29;;;;;;;30.90;16.42;;;12.90;95.10;;;;;;5033552;28;20086;-72
2021/10/19 03:06:54;;;;;;;34.95;16.10;;;12.90;95.10;;;;;;5034057;28;20104;-72
2021/10/19 03:09:20;;;;;;;30.50;16.55;;;12.90;95.10;;;;;;5033634;28;20044;-71
2021/10/19 03:11:45;;;;;;;27.58;15.68;;;13.00;95.20;;;;;;5033332;28;20038;-71
2021/10/19 03:14:12;;;;;;;29.45;15.50;;;13.00;95.10;;;;;;5033318;28;20028;-73
2021/10/19 03:16:37;;;;;;;28.13;15.07;;;13.00;95.20;;;;;;5033586;28;20034;-71
2021/10/19 03:19:03;;;;;;;24.55;14.27;;;12.90;95.40;;;;;;5033470;28;20026;-72
2021/10/19 03:21:29;;;;;;;29.02;15.85;;;12.90;95.30;;;;;;5033260;28;20121;-71
2021/10/19 03:23:55;;;;;;;31.13;15.60;;;12.90;95.40;;;;;;5033039;28;20091;-71
2021/10/19 03:26:21;;;;;;;28.23;16.13;;;12.90;95.50;;;;;;5033234;28;20040;-71
2021/10/19 03:28:47;;;;;;;31.27;16.17;;;13.00;95.50;;;;;;5033289;28;20030;-71
2021/10/19 03:31:13;;;;;;;31.95;17.02;;;12.90;95.40;;;;;;5033471;28;20091;-74
2021/10/19 03:33:39;;;;;;;26.92;15.40;;;12.90;95.60;;;;;;5032198;28;20029;-72
2021/10/19 03:36:06;;;;;;;31.38;16.40;;;13.00;95.50;;;;;;5032957;28;20109;-72
2021/10/19 03:38:36;;;;;;;33.47;16.92;;;13.00;95.30;;;;;;5032944;28;20415;-72
2021/10/19 03:41:02;;;;;;;31.27;16.15;;;13.00;95.50;;;;;;5033121;28;20079;-72
2021/10/19 03:43:28;;;;;;;32.38;16.98;;;12.90;95.40;;;;;;5031821;28;20029;-72
2021/10/19 03:45:53;;;;;;;32.80;16.67;;;12.80;95.50;;;;;;5032572;28;20072;-72
2021/10/19 03:48:19;;;;;;;30.70;15.95;;;12.90;95.60;;;;;;5032633;28;20452;-72
2021/10/19 03:50:44;;;;;;;30.52;15.55;;;12.90;95.50;;;;;;5031673;28;20033;-73
2021/10/19 03:53:11;;;;;;;30.95;16.10;;;12.90;95.50;;;;;;5032382;28;20021;-73
2021/10/19 03:55:36;;;;;;;31.25;16.65;;;12.90;95.40;;;;;;5032585;28;20038;-72
2021/10/19 03:58:02;;;;;;;29.60;16.38;;;13.00;95.40;;;;;;5032838;28;20029;-73
2021/10/19 04:00:27;;;;;;;31.70;15.95;;;13.00;95.40;;;;;;5032200;28;20036;-73
2021/10/19 04:02:53;;;;;;;30.95;15.93;;;13.00;95.40;;;;;;5031963;28;20030;-72
2021/10/19 04:05:19;;;;;;;29.98;15.93;;;12.90;95.50;;;;;;5032459;28;20037;-72
2021/10/19 04:07:45;;;;;;;29.02;15.82;;;12.90;95.40;;;;;;5032376;28;20025;-71
2021/10/19 04:10:12;;;;;;;32.88;16.50;;;12.90;95.40;;;;;;5032335;28;20045;-71
2021/10/19 04:12:38;;;;;;;30.60;15.63;;;12.90;95.60;;;;;;5032321;28;20029;-74
2021/10/19 04:15:05;;;;;;;31.88;16.02;;;13.00;95.50;;;;;;5032046;28;20030;-72
2021/10/19 04:17:30;;;;;;;30.17;16.13;;;13.00;95.60;;;;;;5031913;28;20460;-72
2021/10/19 04:19:56;;;;;;;30.88;17.05;;;12.90;95.60;;;;;;5032102;28;20116;-72
2021/10/19 04:22:22;;;;;;;33.60;16.58;;;13.00;95.60;;;;;;5031898;28;20029;-71
2021/10/19 04:24:49;;;;;;;30.08;16.15;;;13.00;95.60;;;;;;5032331;28;20061;-73
2021/10/19 04:27:15;;;;;;;27.98;15.13;;;13.00;95.50;;;;;;5031974;28;20460;-72
2021/10/19 04:29:41;;;;;;;31.20;16.05;;;13.00;95.60;;;;;;5031811;28;20061;-72
2021/10/19 04:32:06;;;;;;;31.98;16.60;;;13.10;95.60;;;;;;5031761;28;20029;-72
2021/10/19 04:34:32;;;;;;;29.17;15.23;;;13.10;95.50;;;;;;5031741;28;20037;-72
2021/10/19 04:36:58;;;;;;;33.15;15.23;;;13.10;95.50;;;;;;5032316;28;20056;-72
2021/10/19 04:39:23;;;;;;;27.13;15.13;;;13.10;95.50;;;;;;5031705;28;20483;-71
2021/10/19 04:41:49;;;;;;;31.75;16.15;;;13.20;95.50;;;;;;5031696;28;20037;-73
2021/10/19 04:44:14;;;;;;;34.58;16.20;;;13.10;95.50;;;;;;5031588;28;20159;-74
2021/10/19 04:46:40;;;;;;;30.27;16.00;;;13.20;95.60;;;;;;5031586;28;20038;-72
2021/10/19 04:49:07;;;;;;;30.42;15.93;;;13.10;95.50;;;;;;5031997;28;20171;-72
2021/10/19 04:51:32;;;;;;;34.28;15.82;;;13.10;95.50;;;;;;5031516;28;20717;-71
2021/10/19 04:53:58;;;;;;;28.42;16.38;;;13.20;95.60;;;;;;5031513;28;20090;-71
2021/10/19 04:56:24;;;;;;;32.10;16.50;;;13.10;95.50;;;;;;5031503;28;20123;-72
2021/10/19 04:58:49;;;;;;;28.95;16.45;;;13.20;95.50;;;;;;5031406;28;20077;-71
2021/10/19 05:01:15;;;;;;;31.17;16.08;;;13.10;95.50;;;;;;5031858;28;20025;-73
2021/10/19 05:03:46;;;;;;;29.30;16.27;;;13.10;95.30;;;;;;5031293;28;20486;-72
2021/10/19 05:06:12;;;;;;;36.97;17.67;;;13.10;95.50;;;;;;5031439;28;20048;-72
2021/10/19 05:08:38;;;;;;;27.52;15.30;;;13.20;95.60;;;;;;5031477;28;20168;-71
2021/10/19 05:11:03;;;;;;;31.63;15.90;;;13.10;95.50;;;;;;5031262;28;20120;-72
2021/10/19 05:13:29;;;;;;;28.98;15.18;;;13.20;95.60;;;;;;5030069;28;20359;-73
2021/10/19 05:15:55;;;;;;;34.03;16.08;;;13.20;95.50;;;;;;5031489;28;20415;-72
2021/10/19 05:18:20;;;;;;;28.30;14.50;;;13.20;95.50;;;;;;5030947;28;20088;-74
2021/10/19 05:20:46;;;;;;;32.05;15.73;;;13.20;95.40;;;;;;5030892;28;20057;-73
2021/10/19 05:23:11;;;;;;;29.38;15.43;;;13.20;95.40;;;;;;5030646;28;20077;-73
2021/10/19 05:25:37;;;;;;;27.02;14.35;;;13.20;95.40;;;;;;5031045;28;20470;-74
2021/10/19 05:28:03;;;;;;;28.65;15.27;;;13.20;95.40;;;;;;5031590;28;20056;-75
2021/10/19 05:30:28;;;;;;;26.90;14.70;;;13.20;95.50;;;;;;5030738;28;20064;-74
2021/10/19 05:32:54;;;;;;;31.05;15.40;;;13.20;95.50;;;;;;5029595;28;20463;-75
2021/10/19 05:35:19;;;;;;;29.70;15.27;;;13.20;95.50;;;;;;5031082;28;20187;-72
2021/10/19 05:37:45;;;;;;;28.08;14.48;;;13.20;95.50;;;;;;5030600;28;20116;-72
2021/10/19 05:40:11;;;;;;;29.83;14.23;;;13.20;95.40;;;;;;5031167;28;20034;-74
2021/10/19 05:42:37;;;;;;;27.33;14.77;;;13.20;95.60;;;;;;5030782;28;20040;-75
2021/10/19 05:45:06;;;;;;;27.00;14.98;;;13.30;95.40;;;;;;5030984;28;20033;-74
2021/10/19 05:47:32;;;;;;;25.90;14.73;;;13.20;95.30;;;;;;5030494;28;20041;-70
2021/10/19 05:49:59;;;;;;;26.92;14.52;;;13.30;95.30;;;;;;5030744;28;20376;-69
2021/10/19 05:52:25;;;;;;;27.05;14.30;;;13.20;95.40;;;;;;5030641;28;20109;-71
2021/10/19 05:54:50;;;;;;;30.20;15.52;;;13.30;95.40;;;;;;5030865;28;20105;-69
2021/10/19 05:57:16;;;;;;;24.90;14.27;;;13.20;95.40;;;;;;5030483;28;20561;-72
2021/10/19 05:59:41;;;;;;;27.25;15.15;;;13.20;95.40;;;;;;5030495;28;20065;-71
2021/10/19 06:02:07;;;;;;;28.83;15.05;;;13.20;95.40;;;;;;5030631;28;20355;-71
2021/10/19 06:04:33;;;;;;;27.23;14.70;;;13.30;95.30;;;;;;5030253;28;20068;-71
2021/10/19 06:06:59;;;;;;;25.13;14.68;;;13.20;95.40;;;;;;5031000;28;20041;-70
2021/10/19 06:09:26;;;;;;;30.00;14.20;;;13.20;95.30;;;;;;5030443;28;20366;-71
2021/10/19 06:11:53;;;;;;;27.35;15.77;;;13.20;95.30;;;;;;5030208;28;20044;-70
2021/10/19 06:14:19;;;;;;;27.95;14.98;;;13.20;95.20;;;;;;5030490;28;20030;-71
2021/10/19 06:16:45;;;;;;;31.40;14.73;;;13.20;95.40;;;;;;5030494;28;20493;-71
2021/10/19 06:19:12;;;;;;;30.58;15.05;;;13.20;95.40;;;;;;5030440;28;20109;-71
2021/10/19 06:21:38;;;;;;;28.60;14.35;;;13.20;95.30;;;;;;5030373;28;20192;-71
2021/10/19 06:24:04;;;;;;;25.55;14.27;;;13.20;95.40;;;;;;5030213;28;20026;-70
2021/10/19 06:26:35;;;;;;;26.55;14.20;;;13.20;95.50;;;;;;5033948;28;20060;-71
2021/10/19 06:29:01;;;;;;;29.52;14.60;;;13.20;95.40;;;;;;5034062;28;20036;-71
2021/10/19 06:31:27;;;;;;;28.02;14.70;;;13.20;95.40;;;;;;5034099;28;20111;-70
2021/10/19 06:33:52;;;;;;;31.92;14.45;;;13.10;95.50;;;;;;5034687;28;20095;-70
2021/10/19 06:36:18;;;;;;;30.70;15.57;;;13.20;95.50;;;;;;5032895;28;20032;-70
2021/10/19 06:38:44;;;;;;;24.63;14.25;;;13.10;95.40;;;;;;5033609;28;20541;-70
2021/10/19 06:41:09;;;;;;;28.10;15.55;;;13.10;95.40;;;;;;5033830;28;20029;-69
2021/10/19 06:43:35;;;;;;;27.75;15.35;;;13.20;95.40;;;;;;5033817;28;20088;-70
2021/10/19 06:46:00;;;;;;;29.52;16.13;;;13.10;95.50;;;;;;5033853;28;20486;-69
2021/10/19 06:48:26;;;;;;;30.25;15.60;;;13.20;95.50;;;;;;5033735;28;20064;-69
2021/10/19 06:50:51;;;;;;;31.80;17.02;;;13.20;95.50;;;;;;5033646;28;20371;-72
2021/10/19 06:53:18;;;;;;;32.30;16.50;;;13.20;95.50;;;;;;5033467;28;20179;-71
2021/10/19 06:55:43;;;;;;;35.55;16.80;;;13.20;95.50;;;;;;5033456;28;20030;-70
2021/10/19 06:58:10;;;;;;;32.80;15.70;;;13.20;95.50;;;;;;5033677;28;20398;-71
2021/10/19 07:00:36;;;;;;;31.05;16.08;;;13.30;95.50;;;;;;5033189;28;20026;-70
2021/10/19 07:03:02;;;;;;;32.38;17.33;;;13.30;95.50;;;;;;5033260;28;20133;-71
2021/10/19 07:05:28;;;;;;;33.58;18.15;;;13.30;95.60;;;;;;5032423;28;20060;-70
2021/10/19 07:07:53;;;;;;;29.08;15.52;;;13.40;95.60;;;;;;5032856;28;20499;-72
2021/10/19 07:10:20;;;;;;;26.10;14.60;;;13.50;95.50;;;;;;5033276;28;20167;-70
2021/10/19 07:12:46;;;;;;;36.97;14.93;;;13.50;95.50;;;;;;5032957;28;20041;-70
2021/10/19 07:15:12;;;;;;;27.10;14.75;;;13.50;95.50;;;;;;5033000;28;20042;-73
2021/10/19 07:17:38;;;;;;;24.77;13.82;;;13.50;95.40;;;;;;5033092;28;20490;-72
2021/10/19 07:20:09;;;;;;;31.08;15.05;;;13.60;95.50;;;;;;5032575;28;20057;-72
2021/10/19 07:22:36;;;;;;;29.60;13.75;;;13.60;95.50;;;;;;5031624;28;20021;-71
2021/10/19 07:25:03;;;;;;;28.48;15.13;;;13.60;95.40;;;;;;5033298;28;20176;-71
2021/10/19 07:27:30;;;;;;;26.70;14.37;;;13.60;95.40;;;;;;5032183;28;20053;-72
2021/10/19 07:29:56;;;;;;;28.05;15.65;;;13.70;95.40;;;;;;5033052;28;20637;-73
2021/10/19 07:32:22;;;;;;;28.30;14.93;;;13.70;95.30;;;;;;5032825;28;20406;-74
2021/10/19 07:34:47;;;;;;;24.65;14.57;;;13.70;95.30;;;;;;5032722;28;20030;-74
2021/10/19 07:37:15;;;;;;;30.65;15.43;;;13.80;95.30;;;;;;5032217;28;20644;-73
2021/10/19 07:39:41;;;;;;;26.43;13.93;;;13.80;95.30;;;;;;5032783;28;20042;-73
2021/10/19 07:42:06;;;;;;;24.83;14.02;;;13.90;95.30;;;;;;5032873;28;20431;-73
2021/10/19 07:44:32;;;;;;;29.60;14.80;;;13.90;95.30;;;;;;5032516;28;20040;-73
2021/10/19 07:46:57;;;;;;;28.05;14.27;;;13.90;95.20;;;;;;5032656;28;20034;-74
2021/10/19 07:49:23;;;;;;;29.90;14.82;;;14.00;95.20;;;;;;5032242;28;20029;-73
2021/10/19 07:51:50;;;;;;;26.75;14.25;;;14.00;95.20;;;;;;5032614;28;20375;-73
2021/10/19 07:54:16;;;;;;;33.55;17.65;;;13.90;95.10;;;;;;5032541;28;20034;-74
2021/10/19 07:56:42;;;;;;;27.75;15.43;;;14.00;95.20;;;;;;5032621;28;20041;-73
2021/10/19 07:59:07;;;;;;;29.08;15.15;;;14.00;95.20;;;;;;5032707;28;20507;-75
2021/10/19 08:01:34;;;;;;;23.80;13.45;;;14.10;95.10;;;;;;5031225;28;20038;-73
2021/10/19 08:04:00;;;;;;;29.00;15.43;;;14.10;95.10;;;;;;5032520;28;20410;-73
2021/10/19 08:06:26;;;;;;;27.58;15.13;;;14.10;95.20;;;;;;5032434;28;20252;-73
2021/10/19 08:08:52;;;;;;;25.00;14.30;;;14.10;95.10;;;;;;5032140;28;20558;-73
2021/10/19 08:11:18;;;;;;;25.10;14.35;;;14.10;95.20;;;;;;5032097;28;20053;-72
2021/10/19 08:13:43;;;;;;;30.67;16.23;;;14.10;95.20;;;;;;5032139;28;20029;-74
2021/10/19 08:16:09;;;;;;;33.15;17.13;;;14.10;95.40;;;;;;5032561;28;20029;-72
2021/10/19 08:18:34;;;;;;;25.23;13.98;;;14.10;95.40;;;;;;5031812;28;20045;-72
2021/10/19 08:21:00;;;;;;;27.23;13.70;;;14.00;95.40;;;;;;5031829;28;20038;-73
2021/10/19 08:23:27;;;;;;;24.38;14.02;;;14.10;95.50;;;;;;5031675;28;20103;-73
2021/10/19 08:25:53;;;;;;;24.60;13.88;;;14.00;95.50;;;;;;5031973;28;20028;-73
2021/10/19 08:28:23;;;;;;;24.25;12.82;;;14.10;95.60;;;;;;5032886;28;20021;-74
2021/10/19 08:30:50;;;;;;;23.02;12.55;;;14.10;95.60;;;;;;5031923;28;20394;-74
2021/10/19 08:33:16;;;;;;;26.08;13.65;;;14.10;95.70;;;;;;5031690;28;20119;-76
2021/10/19 08:35:41;;;;;;;24.17;13.60;;;14.20;95.60;;;;;;5031704;28;20483;-77
2021/10/19 08:38:07;;;;;;;24.55;13.30;;;14.20;96.00;;;;;;5031367;28;20522;-76
2021/10/19 08:40:33;;;;;;;25.70;13.45;;;14.20;95.80;;;;;;5031350;28;20029;-77
2021/10/19 08:42:59;;;;;;;25.85;13.27;;;14.30;95.80;;;;;;5030807;28;20034;-74
2021/10/19 08:45:25;;;;;;;21.50;13.13;;;14.40;95.80;;;;;;5031417;28;20088;-74
2021/10/19 08:47:52;;;;;;;28.25;14.35;;;14.40;96.10;;;;;;5031059;28;20033;-75
2021/10/19 08:50:20;;;;;;;25.63;13.43;;;14.40;95.70;;;;;;5031387;28;20030;-74
2021/10/19 08:52:46;;;;;;;24.35;13.48;;;14.50;95.80;;;;;;5030184;28;20053;-75
2021/10/19 08:55:13;;;;;;;26.80;13.80;;;14.50;95.70;;;;;;5031805;28;20017;-75
2021/10/19 08:57:39;;;;;;;29.25;15.57;;;14.50;95.70;;;;;;5029966;28;20056;-75
2021/10/19 09:00:07;;;;;;;30.17;12.75;;;14.60;95.70;;;;;;5031140;28;20255;-75
2021/10/19 09:02:36;;;;;;;;;;;14.60;95.60;;;;;;5031472;28;20037;-75
2021/10/19 09:05:04;;;;;;;26.20;12.93;;;14.70;95.60;;;;;;5031014;28;20346;-75
2021/10/19 09:07:29;;;;;;;20.92;12.60;;;14.70;95.40;;;;;;5031112;28;20040;-75
2021/10/19 09:09:55;;;;;;;25.83;12.63;;;14.70;95.30;;;;;;5029929;28;20463;-74
2021/10/19 09:12:24;;;;;;;25.55;12.63;;;14.70;95.30;;;;;;5030919;28;20033;-74
2021/10/19 09:14:50;;;;;;;24.50;12.45;;;14.80;95.30;;;;;;5030712;28;20028;-74
2021/10/19 09:17:16;;;;;;;22.58;12.10;;;14.70;95.20;;;;;;5030922;28;20029;-75
2021/10/19 09:19:44;;;;;;;22.00;12.82;;;14.90;95.20;;;;;;5030793;28;20034;-75
2021/10/19 09:22:11;;;;;;;23.67;13.50;;;14.90;95.10;;;;;;5031110;28;20018;-75
2021/10/19 09:24:39;;;;;;;23.80;13.00;;;14.90;95.10;;;;;;5030856;28;20041;-75
2021/10/19 09:27:16;;;;;;;22.15;12.35;;;15.00;95.20;;;;;;5030869;28;20475;-73
2021/10/19 09:29:42;;;;;;;21.67;11.90;;;15.00;95.00;;;;;;5030795;28;20033;-75
2021/10/19 09:32:09;;;;;;;23.83;12.48;;;15.00;95.00;;;;;;5030610;28;20379;-74
2021/10/19 09:34:37;;;;;;;18.70;10.82;;;15.10;95.10;;;;;;5030653;28;20018;-72
2021/10/19 09:37:07;;;;;;;19.95;11.57;;;15.10;95.00;;;;;;5031038;28;20088;-73
2021/10/19 09:39:39;;;;;;;19.52;10.82;;;15.10;95.00;;;;;;5030503;28;20163;-75
2021/10/19 09:42:27;;;;;;;20.58;11.80;;;15.10;95.00;;;;;;5029315;28;20115;-74
2021/10/19 09:44:59;;;;;;;18.85;10.80;;;15.20;95.00;;;;;;5030082;28;20037;-74
2021/10/19 09:47:27;;;;;;;19.95;10.90;;;15.20;95.10;;;;;;5030478;28;20065;-75
2021/10/19 09:49:54;;;;;;;17.70;11.07;;;15.20;95.00;;;;;;5030481;28;20107;-72
2021/10/19 09:52:20;;;;;;;19.27;11.03;;;15.30;95.10;;;;;;5030954;28;20282;-73
2021/10/19 09:54:50;;;;;;;20.60;11.55;;;15.30;95.00;;;;;;5030554;28;20084;-74
2021/10/19 09:57:16;;;;;;;16.10;10.20;;;15.40;95.00;;;;;;5030452;28;20120;-74
2021/10/19 09:59:42;;;;;;;20.02;10.20;;;15.50;95.00;;;;;;5031832;28;20428;-75
2021/10/19 10:02:13;;;;;;;18.00;10.77;;;15.40;94.90;;;;;;5034615;28;20171;-74
2021/10/19 10:04:39;;;;;;;19.63;11.10;;;15.40;94.90;;;;;;5034222;28;20375;-74
2021/10/19 10:07:07;;;;;;;16.60;11.00;;;15.40;95.00;;;;;;5035014;28;20013;-75
2021/10/19 10:09:33;;;;;;;22.83;11.15;;;15.40;95.00;;;;;;5034524;28;20033;-74
2021/10/19 10:11:59;;;;;;;19.52;10.00;;;15.40;95.10;;;;;;5034267;28;20187;-74
2021/10/19 10:14:25;;;;;;;20.85;10.15;;;15.40;95.20;;;;;;5034278;28;20414;-75
2021/10/19 10:16:51;;;;;;;20.98;10.30;;;15.40;95.10;;;;;;5034646;28;20032;-76
2021/10/19 10:19:20;;;;;;;20.80;10.55;;;15.50;95.20;;;;;;5034517;28;20021;-73
2021/10/19 10:21:52;;;;;;;19.30;10.68;;;15.50;95.20;;;;;;5034677;28;20038;-75
2021/10/19 10:24:32;;;;;;;18.83;11.38;;;15.40;95.30;;;;;;5034331;28;20255;-74
2021/10/19 10:27:08;;;;;;;22.15;9.77;;;15.50;95.40;;;;;;5032941;28;20041;-75
2021/10/19 10:29:48;;;;;;;19.00;10.45;;;15.50;95.40;;;;;;5034388;28;20044;-74
2021/10/19 10:32:28;;;;;;;18.23;9.73;;;15.50;95.40;;;;;;5033847;28;20025;-75
2021/10/19 10:35:12;;;;;;;16.38;8.82;;;15.50;95.40;;;;;;5033772;28;20036;-74
2021/10/19 10:37:44;;;;;;;15.98;9.30;;;15.50;95.40;;;;;;5033817;28;20029;-74
2021/10/19 10:40:13;;;;;;;16.00;8.60;;;15.60;95.50;;;;;;5034171;28;20018;-72
2021/10/19 10:42:41;;;;;;;20.88;9.35;;;15.50;95.50;;;;;;5034407;28;20091;-70
2021/10/19 10:45:17;;;;;;;16.73;9.20;;;15.50;95.70;;;;;;5032414;28;20079;-72
2021/10/19 10:48:19;;;;;;;17.85;8.60;;;15.50;95.80;;;;;;5033636;28;20116;-72
2021/10/19 10:50:44;;;;;;;16.17;8.63;;;15.50;95.80;;;;;;4972725;28;20039;-71
2021/10/19 10:53:12;;;;;;;16.52;8.48;;;15.60;95.80;;;;;;5032412;28;20041;-71
2021/10/19 10:55:41;;;;;;;14.25;8.18;;;15.70;95.90;;;;;;5033432;28;20038;-71
2021/10/19 10:58:06;;;;;;;13.77;8.55;;;15.70;95.90;;;;;;5034004;28;20022;-74
2021/10/19 11:00:33;;;;;;;13.30;8.30;;;15.70;96.00;;;;;;5033435;28;20509;-72
2021/10/19 11:03:18;;;;;;;18.50;9.38;;;15.70;96.00;;;;;;5033498;28;20045;-71
2021/10/19 11:05:59;;;;;;;18.90;9.10;;;15.70;96.00;;;;;;5033275;28;20021;-70
2021/10/19 11:08:30;;;;;;;15.93;9.40;;;15.80;96.10;;;;;;5033256;28;20040;-70
2021/10/19 11:11:12;;;;;;;17.33;8.43;;;15.80;96.10;;;;;;5032781;28;20111;-71
2021/10/19 11:14:04;;;;;;;19.00;9.68;;;15.80;96.20;;;;;;5033231;28;20036;-72
2021/10/19 11:16:46;;;;;;;23.75;11.07;;;15.80;96.10;;;;;;5030297;28;20407;-71
2021/10/19 11:19:26;;;;;;;13.85;8.77;;;15.80;96.20;;;;;;5033437;28;20141;-72
2021/10/19 11:21:54;;;;;;;15.05;8.40;;;15.80;96.10;;;;;;5033331;28;20045;-71
2021/10/19 11:24:20;;;;;;;;;;;15.90;96.20;;;;;;5033398;28;20060;-72
2021/10/19 11:26:46;;;;;;;11.35;6.60;;;15.90;96.30;;;;;;5032867;28;19943;-72
2021/10/19 11:29:12;;;;;;;11.73;6.95;;;15.80;96.40;;;;;;5032846;28;20422;-72
2021/10/19 11:31:38;;;;;;;11.80;6.53;;;15.80;96.50;;;;;;5032760;28;20026;-70
2021/10/19 11:34:06;;;;;;;9.95;5.78;;;15.90;96.50;;;;;;5033299;28;20292;-72
2021/10/19 11:36:32;;;;;;;9.65;5.85;;;15.90;96.60;;;;;;5032642;28;20050;-73
2021/10/19 11:39:00;;;;;;;9.50;5.80;;;15.90;96.60;;;;;;5032852;28;20073;-72
2021/10/19 11:41:30;;;;;;;8.73;5.70;;;15.90;96.70;;;;;;5032869;28;20530;-71
2021/10/19 11:43:59;;;;;;;11.48;5.20;;;15.90;96.60;;;;;;5032632;28;20034;-72
2021/10/19 11:46:27;;;;;;;9.48;5.65;;;15.90;96.70;;;;;;5032447;28;20508;-72
2021/10/19 11:48:55;;;;;;;13.45;8.30;;;15.90;96.80;;;;;;5032922;28;20037;-72
2021/10/19 11:51:23;;;;;;;;;;;16.00;96.90;;;;;;5033038;28;20063;-72
2021/10/19 11:53:53;;;;;;;9.48;5.55;;;16.00;96.90;;;;;;5032661;28;19909;-70
2021/10/19 11:56:20;;;;;;;9.65;5.80;;;16.00;97.00;;;;;;5032441;28;20060;-72
2021/10/19 11:58:52;;;;;;;11.35;5.55;;;16.10;97.00;;;;;;5032721;28;20118;-72
2021/10/19 12:01:19;;;;;;;7.72;4.80;;;16.00;97.00;;;;;;5032907;28;20035;-71
2021/10/19 12:04:00;;;;;;;9.23;4.88;;;16.00;97.00;;;;;;5032228;28;20026;-72
2021/10/19 12:06:28;;;;;;;8.18;4.80;;;16.10;97.10;;;;;;5031184;28;20079;-72
2021/10/19 12:08:55;;;;;;;8.25;5.57;;;16.10;97.20;;;;;;5032329;28;20029;-72
2021/10/19 12:11:25;;;;;;;11.35;5.07;;;16.10;97.20;;;;;;5031887;28;20203;-71
2021/10/19 12:13:58;;;;;;;7.90;4.72;;;16.10;97.20;;;;;;5032404;28;20111;-72
2021/10/19 12:16:29;;;;;;;9.27;4.30;;;16.10;97.20;;;;;;5032323;28;20120;-72
2021/10/19 12:18:56;;;;;;;6.05;4.30;;;16.10;97.30;;;;;;5032193;28;20490;-72
2021/10/19 12:21:23;;;;;;;6.00;4.18;;;16.10;97.30;;;;;;5031959;28;20034;-71
2021/10/19 12:24:03;;;;;;;7.55;4.28;;;16.10;97.30;;;;;;5031069;28;20117;-73
2021/10/19 12:26:32;;;;;;;10.73;4.90;;;16.10;97.30;;;;;;5032101;28;20037;-72
2021/10/19 12:29:03;;;;;;;7.43;4.43;;;16.10;97.40;;;;;;5031857;28;20022;-72
2021/10/19 12:31:30;;;;;;;7.53;4.47;;;16.00;97.40;;;;;;5031625;28;20088;-72